sensor_id;sensor_type;location;lat;lon;timestamp;P1;durP1;ratioP1;P2;durP2;ratioP2
22711;SDS011;11523;50.390;8.072;2022-10-22T04:01:23;6.90;;;5.38;;
22711;SDS011;11523;50.390;8.072;2022-10-22T04:03:56;6.20;;;5.22;;
22711;SDS011;11523;50.390;8.072;2022-10-22T04:06:23;9.15;;;5.88;;
22711;SDS011;11523;50.390;8.072;2022-10-22T04:08:49;7.95;;;6.05;;
22711;SDS011;11523;50.390;8.072;2022-10-22T04:11:15;7.13;;;5.70;;
22711;SDS011;11523;50.390;8.072;2022-10-22T04:13:41;9.00;;;5.93;;
22711;SDS011;11523;50.390;8.072;2022-10-22T04:16:14;6.63;;;5.43;;
22711;SDS011;11523;50.390;8.072;2022-10-22T04:18:41;9.50;;;5.77;;
22711;SDS011;11523;50.390;8.072;2022-10-22T04:21:08;13.05;;;6.00;;
22711;SDS011;11523;50.390;8.072;2022-10-22T04:23:34;10.02;;;5.85;;
22711;SDS011;11523;50.390;8.072;2022-10-22T04:26:01;6.03;;;5.43;;
22711;SDS011;11523;50.390;8.072;2022-10-22T04:28:28;9.02;;;5.10;;
22711;SDS011;11523;50.390;8.072;2022-10-22T04:30:54;7.53;;;5.88;;
22711;SDS011;11523;50.390;8.072;2022-10-22T04:33:20;8.60;;;6.13;;
22711;SDS011;11523;50.390;8.072;2022-10-22T04:35:46;7.97;;;6.15;;
22711;SDS011;11523;50.390;8.072;2022-10-22T04:38:12;6.25;;;5.63;;
22711;SDS011;11523;50.390;8.072;2022-10-22T04:40:38;7.95;;;5.55;;
22711;SDS011;11523;50.390;8.072;2022-10-22T04:43:04;7.63;;;5.38;;
22711;SDS011;11523;50.390;8.072;2022-10-22T04:45:31;7.57;;;5.57;;
22711;SDS011;11523;50.390;8.072;2022-10-22T04:47:57;6.78;;;5.43;;
22711;SDS011;11523;50.390;8.072;2022-10-22T04:50:23;6.28;;;5.53;;
22711;SDS011;11523;50.390;8.072;2022-10-22T04:52:49;5.97;;;5.40;;
22711;SDS011;11523;50.390;8.072;2022-10-22T04:55:15;7.88;;;5.22;;
22711;SDS011;11523;50.390;8.072;2022-10-22T04:57:41;6.55;;;5.43;;
22711;SDS011;11523;50.390;8.072;2022-10-22T05:00:07;8.95;;;5.32;;
22711;SDS011;11523;50.390;8.072;2022-10-22T05:02:33;7.50;;;5.72;;
22711;SDS011;11523;50.390;8.072;2022-10-22T05:04:59;8.77;;;5.70;;
22711;SDS011;11523;50.390;8.072;2022-10-22T05:07:25;8.00;;;5.53;;
22711;SDS011;11523;50.390;8.072;2022-10-22T05:09:52;7.65;;;5.70;;
22711;SDS011;11523;50.390;8.072;2022-10-22T05:12:18;6.10;;;5.47;;
22711;SDS011;11523;50.390;8.072;2022-10-22T05:14:44;7.63;;;5.35;;
22711;SDS011;11523;50.390;8.072;2022-10-22T05:17:10;5.43;;;4.93;;
22711;SDS011;11523;50.390;8.072;2022-10-22T05:19:36;5.63;;;5.10;;
22711;SDS011;11523;50.390;8.072;2022-10-22T05:22:02;6.00;;;4.72;;
22711;SDS011;11523;50.390;8.072;2022-10-22T05:24:28;7.38;;;5.47;;
22711;SDS011;11523;50.390;8.072;2022-10-22T05:26:55;6.00;;;5.15;;
22711;SDS011;11523;50.390;8.072;2022-10-22T05:29:22;9.10;;;5.80;;
22711;SDS011;11523;50.390;8.072;2022-10-22T05:31:48;7.05;;;5.60;;
22711;SDS011;11523;50.390;8.072;2022-10-22T05:34:14;7.90;;;5.40;;
22711;SDS011;11523;50.390;8.072;2022-10-22T05:36:40;7.40;;;5.65;;
22711;SDS011;11523;50.390;8.072;2022-10-22T05:39:06;6.32;;;5.32;;
22711;SDS011;11523;50.390;8.072;2022-10-22T05:41:33;7.80;;;5.30;;
22711;SDS011;11523;50.390;8.072;2022-10-22T05:44:02;6.53;;;5.00;;
22711;SDS011;11523;50.390;8.072;2022-10-22T05:46:29;7.22;;;5.22;;
22711;SDS011;11523;50.390;8.072;2022-10-22T05:49:00;6.68;;;5.10;;
22711;SDS011;11523;50.390;8.072;2022-10-22T05:51:27;6.93;;;4.70;;
22711;SDS011;11523;50.390;8.072;2022-10-22T05:54:00;8.25;;;4.88;;
22711;SDS011;11523;50.390;8.072;2022-10-22T05:56:27;9.95;;;5.07;;
22711;SDS011;11523;50.390;8.072;2022-10-22T05:58:53;9.85;;;4.72;;
22711;SDS011;11523;50.390;8.072;2022-10-22T06:01:23;6.60;;;5.20;;
22711;SDS011;11523;50.390;8.072;2022-10-22T06:03:54;22.67;;;5.20;;
22711;SDS011;11523;50.390;8.072;2022-10-22T06:08:47;7.93;;;4.65;;
22711;SDS011;11523;50.390;8.072;2022-10-22T06:11:14;8.57;;;4.53;;
22711;SDS011;11523;50.390;8.072;2022-10-22T06:13:41;16.67;;;4.20;;
22711;SDS011;11523;50.390;8.072;2022-10-22T06:16:07;5.40;;;4.85;;
22711;SDS011;11523;50.390;8.072;2022-10-22T06:18:33;5.07;;;4.57;;
22711;SDS011;11523;50.390;8.072;2022-10-22T06:21:03;6.00;;;3.95;;
22711;SDS011;11523;50.390;8.072;2022-10-22T06:23:29;8.60;;;4.75;;
22711;SDS011;11523;50.390;8.072;2022-10-22T06:25:56;9.02;;;4.68;;
22711;SDS011;11523;50.390;8.072;2022-10-22T06:28:22;6.55;;;4.57;;
22711;SDS011;11523;50.390;8.072;2022-10-22T06:30:48;19.88;;;5.30;;
22711;SDS011;11523;50.390;8.072;2022-10-22T06:33:14;8.60;;;4.97;;
22711;SDS011;11523;50.390;8.072;2022-10-22T06:35:40;9.73;;;4.50;;
22711;SDS011;11523;50.390;8.072;2022-10-22T06:38:06;9.48;;;4.70;;
22711;SDS011;11523;50.390;8.072;2022-10-22T06:40:32;7.53;;;4.85;;
22711;SDS011;11523;50.390;8.072;2022-10-22T06:42:58;6.75;;;4.85;;
22711;SDS011;11523;50.390;8.072;2022-10-22T06:45:24;9.80;;;5.25;;
22711;SDS011;11523;50.390;8.072;2022-10-22T06:47:51;9.23;;;5.85;;
22711;SDS011;11523;50.390;8.072;2022-10-22T06:50:17;9.10;;;5.88;;
22711;SDS011;11523;50.390;8.072;2022-10-22T06:52:43;10.20;;;6.30;;
22711;SDS011;11523;50.390;8.072;2022-10-22T06:55:09;8.93;;;5.78;;
22711;SDS011;11523;50.390;8.072;2022-10-22T06:57:35;8.60;;;5.72;;
22711;SDS011;11523;50.390;8.072;2022-10-22T07:00:02;6.60;;;5.85;;
22711;SDS011;11523;50.390;8.072;2022-10-22T07:02:28;6.55;;;5.90;;
22711;SDS011;11523;50.390;8.072;2022-10-22T07:04:54;7.25;;;6.50;;
22711;SDS011;11523;50.390;8.072;2022-10-22T07:07:20;10.98;;;6.95;;
22711;SDS011;11523;50.390;8.072;2022-10-22T07:09:46;10.30;;;7.22;;
22711;SDS011;11523;50.390;8.072;2022-10-22T07:12:13;8.00;;;6.70;;
22711;SDS011;11523;50.390;8.072;2022-10-22T07:14:39;10.20;;;7.07;;
22711;SDS011;11523;50.390;8.072;2022-10-22T07:17:05;8.95;;;7.05;;
22711;SDS011;11523;50.390;8.072;2022-10-22T07:19:31;12.25;;;7.25;;
22711;SDS011;11523;50.390;8.072;2022-10-22T07:21:56;9.52;;;7.97;;
22711;SDS011;11523;50.390;8.072;2022-10-22T07:24:22;9.43;;;8.05;;
22711;SDS011;11523;50.390;8.072;2022-10-22T07:26:48;12.60;;;8.40;;
22711;SDS011;11523;50.390;8.072;2022-10-22T07:29:14;11.25;;;7.05;;
22711;SDS011;11523;50.390;8.072;2022-10-22T07:31:41;14.77;;;8.73;;
22711;SDS011;11523;50.390;8.072;2022-10-22T07:34:07;9.40;;;8.25;;
22711;SDS011;11523;50.390;8.072;2022-10-22T07:36:33;11.52;;;7.88;;
22711;SDS011;11523;50.390;8.072;2022-10-22T07:38:59;9.23;;;8.18;;
22711;SDS011;11523;50.390;8.072;2022-10-22T07:41:25;8.57;;;7.47;;
22711;SDS011;11523;50.390;8.072;2022-10-22T07:43:51;9.13;;;8.05;;
22711;SDS011;11523;50.390;8.072;2022-10-22T07:46:18;11.43;;;8.00;;
22711;SDS011;11523;50.390;8.072;2022-10-22T07:48:43;14.07;;;8.55;;
22711;SDS011;11523;50.390;8.072;2022-10-22T07:51:09;14.27;;;9.48;;
22711;SDS011;11523;50.390;8.072;2022-10-22T07:53:36;15.40;;;9.32;;
22711;SDS011;11523;50.390;8.072;2022-10-22T07:56:02;13.63;;;9.25;;
22711;SDS011;11523;50.390;8.072;2022-10-22T07:58:28;15.07;;;9.02;;
22711;SDS011;11523;50.390;8.072;2022-10-22T08:00:54;15.13;;;8.65;;
22711;SDS011;11523;50.390;8.072;2022-10-22T08:03:20;11.30;;;9.00;;
22711;SDS011;11523;50.390;8.072;2022-10-22T08:05:46;15.85;;;9.50;;
22711;SDS011;11523;50.390;8.072;2022-10-22T08:08:13;17.67;;;10.63;;
22711;SDS011;11523;50.390;8.072;2022-10-22T08:10:39;10.63;;;9.57;;
22711;SDS011;11523;50.390;8.072;2022-10-22T08:13:05;14.18;;;9.43;;
22711;SDS011;11523;50.390;8.072;2022-10-22T08:15:31;15.98;;;9.60;;
22711;SDS011;11523;50.390;8.072;2022-10-22T08:17:57;12.38;;;9.05;;
22711;SDS011;11523;50.390;8.072;2022-10-22T08:20:23;18.63;;;9.13;;
22711;SDS011;11523;50.390;8.072;2022-10-22T08:22:49;11.80;;;8.27;;
22711;SDS011;11523;50.390;8.072;2022-10-22T08:25:16;12.50;;;9.00;;
22711;SDS011;11523;50.390;8.072;2022-10-22T08:27:42;10.52;;;8.50;;
22711;SDS011;11523;50.390;8.072;2022-10-22T08:30:15;10.20;;;9.20;;
22711;SDS011;11523;50.390;8.072;2022-10-22T08:32:41;15.52;;;9.15;;
22711;SDS011;11523;50.390;8.072;2022-10-22T08:35:07;11.90;;;7.90;;
22711;SDS011;11523;50.390;8.072;2022-10-22T08:37:33;14.75;;;9.35;;
22711;SDS011;11523;50.390;8.072;2022-10-22T08:39:59;10.07;;;7.90;;
22711;SDS011;11523;50.390;8.072;2022-10-22T08:45:19;15.23;;;8.18;;
22711;SDS011;11523;50.390;8.072;2022-10-22T08:48:04;15.05;;;6.97;;
22711;SDS011;11523;50.390;8.072;2022-10-22T08:50:38;12.63;;;6.70;;
22711;SDS011;11523;50.390;8.072;2022-10-22T08:53:12;11.02;;;5.53;;
22711;SDS011;11523;50.390;8.072;2022-10-22T08:55:38;7.57;;;4.70;;
22711;SDS011;11523;50.390;8.072;2022-10-22T08:58:08;16.13;;;4.50;;
22711;SDS011;11523;50.390;8.072;2022-10-22T09:06:26;5.85;;;2.67;;
22711;SDS011;11523;50.390;8.072;2022-10-22T09:08:52;6.05;;;2.58;;
22711;SDS011;11523;50.390;8.072;2022-10-22T09:13:45;4.40;;;2.25;;
22711;SDS011;11523;50.390;8.072;2022-10-22T09:16:19;3.65;;;2.15;;
22711;SDS011;11523;50.390;8.072;2022-10-22T09:18:58;8.20;;;2.37;;
22711;SDS011;11523;50.390;8.072;2022-10-22T09:21:37;9.75;;;2.47;;
22711;SDS011;11523;50.390;8.072;2022-10-22T09:24:13;6.40;;;1.98;;
22711;SDS011;11523;50.390;8.072;2022-10-22T09:26:41;7.78;;;2.15;;
22711;SDS011;11523;50.390;8.072;2022-10-22T09:29:11;10.40;;;1.98;;
22711;SDS011;11523;50.390;8.072;2022-10-22T09:31:39;9.93;;;2.25;;
22711;SDS011;11523;50.390;8.072;2022-10-22T09:34:05;7.55;;;1.67;;
22711;SDS011;11523;50.390;8.072;2022-10-22T09:36:31;5.25;;;1.90;;
22711;SDS011;11523;50.390;8.072;2022-10-22T09:38:57;2.90;;;1.70;;
22711;SDS011;11523;50.390;8.072;2022-10-22T09:41:25;6.63;;;1.90;;
22711;SDS011;11523;50.390;8.072;2022-10-22T09:43:53;5.68;;;2.28;;
22711;SDS011;11523;50.390;8.072;2022-10-22T09:46:20;6.47;;;2.35;;
22711;SDS011;11523;50.390;8.072;2022-10-22T09:48:47;7.43;;;2.13;;
22711;SDS011;11523;50.390;8.072;2022-10-22T09:51:21;6.88;;;1.75;;
22711;SDS011;11523;50.390;8.072;2022-10-22T09:53:57;7.65;;;1.65;;
22711;SDS011;11523;50.390;8.072;2022-10-22T09:56:27;7.55;;;2.00;;
22711;SDS011;11523;50.390;8.072;2022-10-22T09:58:56;7.95;;;1.90;;
22711;SDS011;11523;50.390;8.072;2022-10-22T10:01:25;5.68;;;1.65;;
22711;SDS011;11523;50.390;8.072;2022-10-22T10:04:04;6.90;;;1.90;;
22711;SDS011;11523;50.390;8.072;2022-10-22T10:06:31;3.10;;;1.48;;
22711;SDS011;11523;50.390;8.072;2022-10-22T10:08:58;13.02;;;2.45;;
22711;SDS011;11523;50.390;8.072;2022-10-22T10:11:43;6.28;;;1.63;;
22711;SDS011;11523;50.390;8.072;2022-10-22T10:22:13;5.07;;;1.75;;
22711;SDS011;11523;50.390;8.072;2022-10-22T10:25:01;6.72;;;2.00;;
22711;SDS011;11523;50.390;8.072;2022-10-22T10:28:03;4.82;;;1.73;;
22711;SDS011;11523;50.390;8.072;2022-10-22T10:30:21;6.05;;;1.60;;
22711;SDS011;11523;50.390;8.072;2022-10-22T10:38:30;4.10;;;1.60;;
22711;SDS011;11523;50.390;8.072;2022-10-22T10:43:46;7.45;;;1.95;;
22711;SDS011;11523;50.390;8.072;2022-10-22T10:46:24;11.43;;;2.03;;
22711;SDS011;11523;50.390;8.072;2022-10-22T10:48:55;6.75;;;1.92;;
22711;SDS011;11523;50.390;8.072;2022-10-22T10:51:44;4.75;;;1.63;;
22711;SDS011;11523;50.390;8.072;2022-10-22T10:54:24;6.78;;;1.60;;
22711;SDS011;11523;50.390;8.072;2022-10-22T10:56:55;4.38;;;1.30;;
22711;SDS011;11523;50.390;8.072;2022-10-22T10:59:28;8.63;;;1.92;;
22711;SDS011;11523;50.390;8.072;2022-10-22T11:09:52;9.07;;;2.20;;
22711;SDS011;11523;50.390;8.072;2022-10-22T11:12:33;7.13;;;1.75;;
22711;SDS011;11523;50.390;8.072;2022-10-22T11:15:02;4.57;;;1.40;;
22711;SDS011;11523;50.390;8.072;2022-10-22T11:17:40;5.15;;;1.70;;
22711;SDS011;11523;50.390;8.072;2022-10-22T11:22:54;5.53;;;1.50;;
22711;SDS011;11523;50.390;8.072;2022-10-22T11:25:21;3.63;;;1.23;;
22711;SDS011;11523;50.390;8.072;2022-10-22T11:27:50;7.55;;;1.70;;
22711;SDS011;11523;50.390;8.072;2022-10-22T11:30:19;4.93;;;1.60;;
22711;SDS011;11523;50.390;8.072;2022-10-22T11:32:46;5.55;;;1.40;;
22711;SDS011;11523;50.390;8.072;2022-10-22T11:35:14;3.47;;;1.83;;
22711;SDS011;11523;50.390;8.072;2022-10-22T11:37:40;5.18;;;1.60;;
22711;SDS011;11523;50.390;8.072;2022-10-22T11:43:07;7.88;;;1.90;;
22711;SDS011;11523;50.390;8.072;2022-10-22T11:45:40;5.05;;;1.38;;
22711;SDS011;11523;50.390;8.072;2022-10-22T11:50:46;6.18;;;1.80;;
22711;SDS011;11523;50.390;8.072;2022-10-22T11:58:30;2.60;;;1.20;;
22711;SDS011;11523;50.390;8.072;2022-10-22T12:06:15;3.70;;;1.30;;
22711;SDS011;11523;50.390;8.072;2022-10-22T12:16:23;5.07;;;1.88;;
22711;SDS011;11523;50.390;8.072;2022-10-22T12:18:52;3.33;;;1.48;;
22711;SDS011;11523;50.390;8.072;2022-10-22T12:21:20;3.83;;;1.40;;
22711;SDS011;11523;50.390;8.072;2022-10-22T12:23:45;2.78;;;1.35;;
22711;SDS011;11523;50.390;8.072;2022-10-22T12:26:25;4.18;;;1.30;;
22711;SDS011;11523;50.390;8.072;2022-10-22T12:28:58;7.38;;;1.58;;
22711;SDS011;11523;50.390;8.072;2022-10-22T12:31:24;3.00;;;1.35;;
22711;SDS011;11523;50.390;8.072;2022-10-22T12:33:57;2.42;;;1.10;;
22711;SDS011;11523;50.390;8.072;2022-10-22T12:36:27;3.78;;;1.40;;
22711;SDS011;11523;50.390;8.072;2022-10-22T12:38:53;3.28;;;1.50;;
22711;SDS011;11523;50.390;8.072;2022-10-22T12:41:20;4.65;;;1.58;;
22711;SDS011;11523;50.390;8.072;2022-10-22T12:43:46;5.88;;;1.27;;
22711;SDS011;11523;50.390;8.072;2022-10-22T12:46:13;3.83;;;1.35;;
22711;SDS011;11523;50.390;8.072;2022-10-22T12:48:41;4.93;;;1.50;;
22711;SDS011;11523;50.390;8.072;2022-10-22T12:51:08;3.63;;;1.50;;
22711;SDS011;11523;50.390;8.072;2022-10-22T12:53:38;7.18;;;1.40;;
22711;SDS011;11523;50.390;8.072;2022-10-22T12:56:11;5.75;;;1.15;;
22711;SDS011;11523;50.390;8.072;2022-10-22T12:58:40;4.63;;;1.45;;
22711;SDS011;11523;50.390;8.072;2022-10-22T13:01:14;7.53;;;1.50;;
22711;SDS011;11523;50.390;8.072;2022-10-22T13:03:49;4.28;;;1.33;;
22711;SDS011;11523;50.390;8.072;2022-10-22T13:08:54;5.10;;;1.40;;
22711;SDS011;11523;50.390;8.072;2022-10-22T13:11:20;6.22;;;1.80;;
22711;SDS011;11523;50.390;8.072;2022-10-22T13:13:46;2.30;;;1.15;;
22711;SDS011;11523;50.390;8.072;2022-10-22T13:16:17;4.05;;;1.38;;
22711;SDS011;11523;50.390;8.072;2022-10-22T13:18:43;5.00;;;1.80;;
22711;SDS011;11523;50.390;8.072;2022-10-22T13:23:57;7.00;;;1.50;;
22711;SDS011;11523;50.390;8.072;2022-10-22T13:26:24;3.10;;;1.48;;
22711;SDS011;11523;50.390;8.072;2022-10-22T13:28:51;4.10;;;1.27;;
22711;SDS011;11523;50.390;8.072;2022-10-22T13:31:18;8.30;;;1.63;;
22711;SDS011;11523;50.390;8.072;2022-10-22T13:33:45;8.45;;;1.75;;
22711;SDS011;11523;50.390;8.072;2022-10-22T13:36:16;5.28;;;1.33;;
22711;SDS011;11523;50.390;8.072;2022-10-22T13:38:43;5.57;;;1.70;;
22711;SDS011;11523;50.390;8.072;2022-10-22T13:41:19;3.22;;;1.20;;
22711;SDS011;11523;50.390;8.072;2022-10-22T13:43:45;4.28;;;1.73;;
22711;SDS011;11523;50.390;8.072;2022-10-22T13:46:11;6.13;;;1.40;;
22711;SDS011;11523;50.390;8.072;2022-10-22T13:48:37;8.43;;;1.65;;
22711;SDS011;11523;50.390;8.072;2022-10-22T13:51:03;4.65;;;1.52;;
22711;SDS011;11523;50.390;8.072;2022-10-22T13:53:29;3.78;;;1.60;;
22711;SDS011;11523;50.390;8.072;2022-10-22T13:55:55;3.85;;;1.67;;
22711;SDS011;11523;50.390;8.072;2022-10-22T13:58:22;6.18;;;1.75;;
22711;SDS011;11523;50.390;8.072;2022-10-22T14:00:50;5.35;;;1.83;;
22711;SDS011;11523;50.390;8.072;2022-10-22T14:03:19;6.20;;;1.77;;
22711;SDS011;11523;50.390;8.072;2022-10-22T14:05:46;5.72;;;1.63;;
22711;SDS011;11523;50.390;8.072;2022-10-22T14:08:13;6.25;;;1.50;;
22711;SDS011;11523;50.390;8.072;2022-10-22T14:10:39;4.85;;;1.40;;
22711;SDS011;11523;50.390;8.072;2022-10-22T14:13:06;2.92;;;1.30;;
22711;SDS011;11523;50.390;8.072;2022-10-22T14:15:32;3.22;;;1.52;;
22711;SDS011;11523;50.390;8.072;2022-10-22T14:17:58;6.65;;;1.70;;
22711;SDS011;11523;50.390;8.072;2022-10-22T14:20:28;5.32;;;1.50;;
22711;SDS011;11523;50.390;8.072;2022-10-22T14:22:55;5.95;;;1.50;;
22711;SDS011;11523;50.390;8.072;2022-10-22T14:25:22;5.25;;;1.48;;
22711;SDS011;11523;50.390;8.072;2022-10-22T14:27:48;10.85;;;1.60;;
22711;SDS011;11523;50.390;8.072;2022-10-22T14:30:15;4.07;;;1.58;;
22711;SDS011;11523;50.390;8.072;2022-10-22T14:32:41;4.20;;;1.80;;
22711;SDS011;11523;50.390;8.072;2022-10-22T14:35:11;6.32;;;2.13;;
22711;SDS011;11523;50.390;8.072;2022-10-22T14:37:37;5.43;;;1.63;;
22711;SDS011;11523;50.390;8.072;2022-10-22T14:40:03;5.40;;;1.65;;
22711;SDS011;11523;50.390;8.072;2022-10-22T14:42:29;4.80;;;1.70;;
22711;SDS011;11523;50.390;8.072;2022-10-22T14:44:55;3.83;;;1.40;;
22711;SDS011;11523;50.390;8.072;2022-10-22T14:47:21;7.38;;;1.88;;
22711;SDS011;11523;50.390;8.072;2022-10-22T14:49:47;4.57;;;1.48;;
22711;SDS011;11523;50.390;8.072;2022-10-22T14:52:13;5.28;;;1.48;;
22711;SDS011;11523;50.390;8.072;2022-10-22T14:54:39;3.72;;;1.60;;
22711;SDS011;11523;50.390;8.072;2022-10-22T14:57:05;7.65;;;1.73;;
22711;SDS011;11523;50.390;8.072;2022-10-22T14:59:32;4.68;;;2.00;;
22711;SDS011;11523;50.390;8.072;2022-10-22T15:01:58;3.38;;;1.60;;
22711;SDS011;11523;50.390;8.072;2022-10-22T15:04:24;5.28;;;1.80;;
22711;SDS011;11523;50.390;8.072;2022-10-22T15:06:51;3.35;;;1.63;;
22711;SDS011;11523;50.390;8.072;2022-10-22T15:09:20;5.88;;;1.75;;
22711;SDS011;11523;50.390;8.072;2022-10-22T15:11:46;8.70;;;2.30;;
22711;SDS011;11523;50.390;8.072;2022-10-22T15:14:12;4.93;;;1.65;;
22711;SDS011;11523;50.390;8.072;2022-10-22T15:16:39;5.72;;;1.65;;
22711;SDS011;11523;50.390;8.072;2022-10-22T15:19:05;4.78;;;1.88;;
22711;SDS011;11523;50.390;8.072;2022-10-22T15:21:31;6.43;;;1.75;;
22711;SDS011;11523;50.390;8.072;2022-10-22T15:23:57;5.47;;;1.80;;
22711;SDS011;11523;50.390;8.072;2022-10-22T15:26:24;5.75;;;1.77;;
22711;SDS011;11523;50.390;8.072;2022-10-22T15:28:51;5.30;;;1.90;;
22711;SDS011;11523;50.390;8.072;2022-10-22T15:31:18;4.85;;;2.00;;
22711;SDS011;11523;50.390;8.072;2022-10-22T15:34:04;9.48;;;2.20;;
22711;SDS011;11523;50.390;8.072;2022-10-22T15:36:30;4.75;;;1.70;;
22711;SDS011;11523;50.390;8.072;2022-10-22T15:38:56;6.03;;;2.00;;
22711;SDS011;11523;50.390;8.072;2022-10-22T15:41:22;6.45;;;2.03;;
22711;SDS011;11523;50.390;8.072;2022-10-22T15:43:47;6.47;;;1.60;;
22711;SDS011;11523;50.390;8.072;2022-10-22T15:46:15;5.10;;;1.92;;
22711;SDS011;11523;50.390;8.072;2022-10-22T15:48:41;4.15;;;1.52;;
22711;SDS011;11523;50.390;8.072;2022-10-22T15:51:08;4.03;;;1.63;;
22711;SDS011;11523;50.390;8.072;2022-10-22T15:53:34;4.47;;;1.70;;
22711;SDS011;11523;50.390;8.072;2022-10-22T15:56:00;7.25;;;1.67;;
22711;SDS011;11523;50.390;8.072;2022-10-22T15:58:26;6.13;;;1.73;;
22711;SDS011;11523;50.390;8.072;2022-10-22T16:00:52;8.77;;;1.83;;
22711;SDS011;11523;50.390;8.072;2022-10-22T16:03:18;5.57;;;1.75;;
22711;SDS011;11523;50.390;8.072;2022-10-22T16:05:50;6.85;;;2.05;;
22711;SDS011;11523;50.390;8.072;2022-10-22T16:08:21;7.07;;;2.00;;
22711;SDS011;11523;50.390;8.072;2022-10-22T16:10:47;10.18;;;2.53;;
22711;SDS011;11523;50.390;8.072;2022-10-22T16:13:13;5.63;;;2.30;;
22711;SDS011;11523;50.390;8.072;2022-10-22T16:15:39;6.07;;;2.00;;
22711;SDS011;11523;50.390;8.072;2022-10-22T16:18:05;6.70;;;2.30;;
22711;SDS011;11523;50.390;8.072;2022-10-22T16:20:31;6.18;;;2.00;;
22711;SDS011;11523;50.390;8.072;2022-10-22T16:22:57;5.65;;;1.90;;
22711;SDS011;11523;50.390;8.072;2022-10-22T16:25:23;8.38;;;1.92;;
22711;SDS011;11523;50.390;8.072;2022-10-22T16:27:49;8.68;;;1.90;;
22711;SDS011;11523;50.390;8.072;2022-10-22T16:30:15;6.82;;;2.03;;
22711;SDS011;11523;50.390;8.072;2022-10-22T16:32:41;5.70;;;1.73;;
22711;SDS011;11523;50.390;8.072;2022-10-22T16:35:07;3.47;;;1.45;;
22711;SDS011;11523;50.390;8.072;2022-10-22T16:37:33;9.48;;;2.13;;
22711;SDS011;11523;50.390;8.072;2022-10-22T16:39:59;6.00;;;2.30;;
22711;SDS011;11523;50.390;8.072;2022-10-22T16:42:25;7.60;;;2.83;;
22711;SDS011;11523;50.390;8.072;2022-10-22T16:44:51;7.22;;;3.00;;
22711;SDS011;11523;50.390;8.072;2022-10-22T16:47:17;6.38;;;3.08;;
22711;SDS011;11523;50.390;8.072;2022-10-22T16:49:43;16.52;;;3.70;;
22711;SDS011;11523;50.390;8.072;2022-10-22T16:52:09;10.80;;;4.38;;
22711;SDS011;11523;50.390;8.072;2022-10-22T16:54:35;7.07;;;3.35;;
22711;SDS011;11523;50.390;8.072;2022-10-22T16:57:01;9.25;;;4.00;;
22711;SDS011;11523;50.390;8.072;2022-10-22T16:59:27;7.78;;;3.00;;
22711;SDS011;11523;50.390;8.072;2022-10-22T17:01:52;11.18;;;3.10;;
22711;SDS011;11523;50.390;8.072;2022-10-22T17:04:18;7.95;;;2.45;;
22711;SDS011;11523;50.390;8.072;2022-10-22T17:06:45;6.75;;;2.90;;
22711;SDS011;11523;50.390;8.072;2022-10-22T17:09:12;8.07;;;2.75;;
22711;SDS011;11523;50.390;8.072;2022-10-22T17:11:38;10.32;;;3.30;;
22711;SDS011;11523;50.390;8.072;2022-10-22T17:14:04;8.40;;;2.80;;
22711;SDS011;11523;50.390;8.072;2022-10-22T17:16:30;5.10;;;2.33;;
22711;SDS011;11523;50.390;8.072;2022-10-22T17:18:56;7.35;;;2.60;;
22711;SDS011;11523;50.390;8.072;2022-10-22T17:21:22;11.80;;;3.17;;
22711;SDS011;11523;50.390;8.072;2022-10-22T17:23:52;7.70;;;2.60;;
22711;SDS011;11523;50.390;8.072;2022-10-22T17:26:19;9.07;;;2.63;;
22711;SDS011;11523;50.390;8.072;2022-10-22T17:28:46;11.00;;;3.00;;
22711;SDS011;11523;50.390;8.072;2022-10-22T17:31:20;5.53;;;2.50;;
22711;SDS011;11523;50.390;8.072;2022-10-22T17:33:46;6.15;;;2.65;;
22711;SDS011;11523;50.390;8.072;2022-10-22T17:36:12;8.65;;;2.95;;
22711;SDS011;11523;50.390;8.072;2022-10-22T17:38:39;6.03;;;2.70;;
22711;SDS011;11523;50.390;8.072;2022-10-22T17:41:06;6.88;;;3.40;;
22711;SDS011;11523;50.390;8.072;2022-10-22T17:43:33;11.80;;;3.60;;
22711;SDS011;11523;50.390;8.072;2022-10-22T17:46:04;6.45;;;3.15;;
22711;SDS011;11523;50.390;8.072;2022-10-22T17:48:30;7.07;;;3.30;;
22711;SDS011;11523;50.390;8.072;2022-10-22T17:50:56;7.03;;;3.17;;
22711;SDS011;11523;50.390;8.072;2022-10-22T17:53:21;9.15;;;3.60;;
22711;SDS011;11523;50.390;8.072;2022-10-22T17:55:47;8.48;;;4.25;;
22711;SDS011;11523;50.390;8.072;2022-10-22T17:58:13;9.80;;;3.60;;
22711;SDS011;11523;50.390;8.072;2022-10-22T18:00:39;6.88;;;3.55;;
22711;SDS011;11523;50.390;8.072;2022-10-22T18:03:05;7.38;;;3.55;;
22711;SDS011;11523;50.390;8.072;2022-10-22T18:05:31;7.43;;;3.33;;
22711;SDS011;11523;50.390;8.072;2022-10-22T18:07:58;7.38;;;3.97;;
22711;SDS011;11523;50.390;8.072;2022-10-22T18:10:24;6.72;;;3.25;;
22711;SDS011;11523;50.390;8.072;2022-10-22T18:12:50;10.50;;;3.63;;
22711;SDS011;11523;50.390;8.072;2022-10-22T18:15:16;9.85;;;3.50;;
22711;SDS011;11523;50.390;8.072;2022-10-22T18:17:42;9.80;;;3.53;;
22711;SDS011;11523;50.390;8.072;2022-10-22T18:20:08;9.13;;;3.40;;
22711;SDS011;11523;50.390;8.072;2022-10-22T18:22:34;6.80;;;3.38;;
22711;SDS011;11523;50.390;8.072;2022-10-22T18:25:00;6.55;;;3.50;;
22711;SDS011;11523;50.390;8.072;2022-10-22T18:27:26;8.73;;;3.80;;
22711;SDS011;11523;50.390;8.072;2022-10-22T18:29:52;10.10;;;3.83;;
22711;SDS011;11523;50.390;8.072;2022-10-22T18:32:18;11.00;;;4.80;;
22711;SDS011;11523;50.390;8.072;2022-10-22T18:34:44;11.30;;;4.65;;
22711;SDS011;11523;50.390;8.072;2022-10-22T18:37:10;10.27;;;4.93;;
22711;SDS011;11523;50.390;8.072;2022-10-22T18:39:36;13.73;;;5.45;;
22711;SDS011;11523;50.390;8.072;2022-10-22T18:42:02;16.23;;;5.70;;
22711;SDS011;11523;50.390;8.072;2022-10-22T18:44:30;12.15;;;5.43;;
22711;SDS011;11523;50.390;8.072;2022-10-22T18:46:56;12.45;;;5.32;;
22711;SDS011;11523;50.390;8.072;2022-10-22T18:49:22;10.02;;;5.90;;
22711;SDS011;11523;50.390;8.072;2022-10-22T18:51:48;9.70;;;4.80;;
22711;SDS011;11523;50.390;8.072;2022-10-22T18:54:17;8.77;;;5.05;;
22711;SDS011;11523;50.390;8.072;2022-10-22T18:56:43;7.53;;;4.40;;
22711;SDS011;11523;50.390;8.072;2022-10-22T18:59:13;11.93;;;4.78;;
22711;SDS011;11523;50.390;8.072;2022-10-22T19:01:47;12.13;;;4.63;;
22711;SDS011;11523;50.390;8.072;2022-10-22T19:04:23;7.68;;;4.47;;
22711;SDS011;11523;50.390;8.072;2022-10-22T19:06:49;14.48;;;5.03;;
22711;SDS011;11523;50.390;8.072;2022-10-22T19:09:15;13.43;;;5.32;;
22711;SDS011;11523;50.390;8.072;2022-10-22T19:11:41;14.30;;;5.57;;
22711;SDS011;11523;50.390;8.072;2022-10-22T19:14:08;10.27;;;5.10;;
22711;SDS011;11523;50.390;8.072;2022-10-22T19:16:34;14.70;;;5.45;;
22711;SDS011;11523;50.390;8.072;2022-10-22T19:19:02;20.98;;;7.80;;
22711;SDS011;11523;50.390;8.072;2022-10-22T19:21:28;22.00;;;9.80;;
22711;SDS011;11523;50.390;8.072;2022-10-22T19:23:55;17.63;;;9.93;;
22711;SDS011;11523;50.390;8.072;2022-10-22T19:26:21;13.32;;;9.38;;
22711;SDS011;11523;50.390;8.072;2022-10-22T19:28:49;12.57;;;7.50;;
22711;SDS011;11523;50.390;8.072;2022-10-22T19:31:19;18.02;;;7.22;;
22711;SDS011;11523;50.390;8.072;2022-10-22T19:33:45;13.80;;;5.75;;
22711;SDS011;11523;50.390;8.072;2022-10-22T19:36:12;15.07;;;5.95;;
22711;SDS011;11523;50.390;8.072;2022-10-22T19:38:42;21.77;;;6.55;;
22711;SDS011;11523;50.390;8.072;2022-10-22T19:41:09;15.82;;;6.63;;
22711;SDS011;11523;50.390;8.072;2022-10-22T19:43:36;9.73;;;6.03;;
22711;SDS011;11523;50.390;8.072;2022-10-22T19:46:03;11.40;;;6.72;;
22711;SDS011;11523;50.390;8.072;2022-10-22T19:48:29;14.70;;;6.60;;
22711;SDS011;11523;50.390;8.072;2022-10-22T19:50:58;9.85;;;6.22;;
22711;SDS011;11523;50.390;8.072;2022-10-22T19:53:26;17.25;;;6.18;;
22711;SDS011;11523;50.390;8.072;2022-10-22T19:55:53;11.93;;;5.35;;
22711;SDS011;11523;50.390;8.072;2022-10-22T19:58:18;10.10;;;5.30;;